createdAt,value
2023-05-04T00:00:27.568Z,57.37
2023-05-04T00:02:54.554Z,57.29
2023-05-04T00:05:21.870Z,57.29
2023-05-04T00:07:48.925Z,57.37
2023-05-04T00:10:16.280Z,57.45
2023-05-04T00:12:43.260Z,57.44
2023-05-04T00:15:10.477Z,57.47
2023-05-04T00:17:38.057Z,57.48
2023-05-04T00:20:06.282Z,57.55
2023-05-04T00:22:33.886Z,57.47
2023-05-04T00:25:01.017Z,57.57
2023-05-04T00:27:28.259Z,57.50
2023-05-04T00:29:55.920Z,57.45
2023-05-04T00:32:23.133Z,57.48
2023-05-04T00:34:50.566Z,57.46
2023-05-04T00:37:17.781Z,57.49
2023-05-04T00:39:45.142Z,57.40
2023-05-04T00:42:12.180Z,57.39
2023-05-04T00:44:41.075Z,57.56
2023-05-04T00:47:08.520Z,57.66
2023-05-04T00:49:35.576Z,57.71
2023-05-04T00:52:02.730Z,57.62
2023-05-04T00:54:29.771Z,57.55
2023-05-04T00:56:56.748Z,57.44
2023-05-04T00:59:23.677Z,57.35
2023-05-04T01:01:50.723Z,57.30
2023-05-04T01:04:18.896Z,57.11
2023-05-04T01:07:00.595Z,56.91
2023-05-04T01:09:33.862Z,56.68
2023-05-04T01:12:11.998Z,56.64
2023-05-04T01:14:38.811Z,56.89
2023-05-04T01:17:06.538Z,57.25
2023-05-04T01:19:34.166Z,57.50
2023-05-04T01:22:02.820Z,57.79
2023-05-04T01:24:30.380Z,58.16
2023-05-04T01:27:09.133Z,58.61
2023-05-04T01:29:43.319Z,59.15
2023-05-04T01:32:11.727Z,59.73
2023-05-04T01:34:38.845Z,60.13
2023-05-04T01:37:06.094Z,60.54
2023-05-04T01:39:33.652Z,60.97
2023-05-04T01:42:02.563Z,61.37
2023-05-04T01:44:29.696Z,61.72
2023-05-04T01:46:56.948Z,62.06
2023-05-04T01:49:23.892Z,62.35
2023-05-04T01:51:51.341Z,62.55
2023-05-04T01:54:18.387Z,62.73
2023-05-04T01:56:45.537Z,62.72
2023-05-04T01:59:12.585Z,62.67
2023-05-04T02:01:41.418Z,62.50
2023-05-04T02:04:08.593Z,62.36
2023-05-04T02:06:38.642Z,61.99
2023-05-04T02:09:05.686Z,61.65
2023-05-04T02:11:33.553Z,61.55
2023-05-04T02:14:00.717Z,61.31
2023-05-04T02:16:27.806Z,60.92
2023-05-04T02:18:55.100Z,60.72
2023-05-04T02:21:22.364Z,60.74
2023-05-04T02:23:49.198Z,60.94
2023-05-04T02:26:17.067Z,61.15
2023-05-04T02:28:44.110Z,61.42
2023-05-04T02:31:11.066Z,61.75
2023-05-04T02:33:38.200Z,61.85
2023-05-04T02:36:05.761Z,62.18
2023-05-04T02:38:32.713Z,62.35
2023-05-04T02:40:59.551Z,62.55
2023-05-04T02:43:26.596Z,62.58
2023-05-04T02:45:53.516Z,62.59
2023-05-04T02:48:20.417Z,62.85
2023-05-04T02:50:47.431Z,62.96
2023-05-04T02:53:14.685Z,63.15
2023-05-04T02:55:41.734Z,63.29
2023-05-04T02:58:08.991Z,63.36
2023-05-04T03:00:36.954Z,63.61
2023-05-04T03:03:04.185Z,63.68
2023-05-04T03:05:33.505Z,63.54
2023-05-04T03:08:00.660Z,63.66
2023-05-04T03:10:27.613Z,63.54
2023-05-04T03:12:54.874Z,63.54
2023-05-04T03:15:22.020Z,63.35
2023-05-04T03:17:49.183Z,63.49
2023-05-04T03:20:16.511Z,63.45
2023-05-04T03:22:43.960Z,63.45
2023-05-04T03:25:11.109Z,63.43
2023-05-04T03:27:38.178Z,63.52
2023-05-04T03:30:06.117Z,63.52
2023-05-04T03:32:34.385Z,63.38
2023-05-04T03:38:23.072Z,63.29
2023-05-04T03:40:50.122Z,63.06
2023-05-04T03:43:17.375Z,62.35
2023-05-04T03:45:44.465Z,61.50
2023-05-04T03:48:11.501Z,60.77
2023-05-04T03:50:38.820Z,60.01
2023-05-04T03:53:06.072Z,59.26
2023-05-04T03:55:33.118Z,59.00
2023-05-04T03:58:00.191Z,58.73
2023-05-04T04:00:27.617Z,58.52
2023-05-04T04:02:58.573Z,58.29
2023-05-04T04:05:26.024Z,58.17
2023-05-04T04:07:53.575Z,58.38
2023-05-04T04:10:20.825Z,58.61
2023-05-04T04:12:47.900Z,58.87
2023-05-04T04:15:15.024Z,59.09
2023-05-04T04:17:42.128Z,59.02
2023-05-04T04:20:10.102Z,58.95
2023-05-04T04:22:37.186Z,59.03
2023-05-04T04:25:05.066Z,59.17
2023-05-04T04:27:32.516Z,58.93
2023-05-04T04:29:59.476Z,58.99
2023-05-04T04:32:26.566Z,59.19
2023-05-04T04:34:53.656Z,59.24
2023-05-04T04:37:20.711Z,59.29
2023-05-04T04:39:47.850Z,59.52
2023-05-04T04:42:14.902Z,59.69
2023-05-04T04:44:41.940Z,59.72
2023-05-04T04:47:09.705Z,59.91
2023-05-04T04:49:36.751Z,60.05
2023-05-04T04:52:04.415Z,60.17
2023-05-04T04:54:32.071Z,60.30
2023-05-04T04:56:59.856Z,60.61
2023-05-04T04:59:26.894Z,60.45
2023-05-04T05:01:54.138Z,60.29
2023-05-04T05:04:22.853Z,60.13
2023-05-04T05:06:49.976Z,60.19
2023-05-04T05:09:17.121Z,60.24
2023-05-04T05:11:44.268Z,60.18
2023-05-04T05:14:11.324Z,59.75
2023-05-04T05:16:38.497Z,59.03
2023-05-04T05:19:05.733Z,58.34
2023-05-04T05:21:32.765Z,57.93
2023-05-04T05:23:59.814Z,57.14
2023-05-04T05:26:27.064Z,56.27
2023-05-04T05:28:54.216Z,55.98
2023-05-04T05:31:22.025Z,55.82
2023-05-04T05:33:49.168Z,55.44
2023-05-04T05:36:16.308Z,54.17
2023-05-04T05:38:43.426Z,53.08
2023-05-04T05:41:10.687Z,51.90
2023-05-04T05:43:38.949Z,50.76
2023-05-04T05:46:06.901Z,50.19
2023-05-04T05:48:34.115Z,49.81
2023-05-04T05:51:01.220Z,49.62
2023-05-04T05:53:28.374Z,48.45
2023-05-04T05:55:55.618Z,47.97
2023-05-04T05:58:22.676Z,47.42
2023-05-04T06:00:49.719Z,46.77
2023-05-04T06:03:16.822Z,46.48
2023-05-04T06:05:44.327Z,46.67
2023-05-04T06:08:11.372Z,46.83
2023-05-04T06:10:38.415Z,47.17
2023-05-04T06:13:05.499Z,47.66
2023-05-04T06:15:32.735Z,48.09
2023-05-04T06:18:00.117Z,48.36
2023-05-04T06:20:27.524Z,48.30
2023-05-04T06:22:54.568Z,48.52
2023-05-04T06:25:22.442Z,48.39
2023-05-04T06:27:49.415Z,47.79
2023-05-04T06:30:16.700Z,47.68
2023-05-04T06:32:43.758Z,47.71
2023-05-04T06:35:10.726Z,46.74
2023-05-04T06:37:37.732Z,45.42
2023-05-04T06:40:05.482Z,44.36
2023-05-04T06:42:32.662Z,43.77
2023-05-04T06:44:59.644Z,43.41
2023-05-04T06:47:26.689Z,43.09
2023-05-04T06:49:53.710Z,42.79
2023-05-04T06:52:20.684Z,42.36
2023-05-04T06:54:47.718Z,41.80
2023-05-04T06:57:15.135Z,41.60
2023-05-04T06:59:42.272Z,41.57
2023-05-04T07:02:09.265Z,41.11
2023-05-04T07:04:36.228Z,40.66
2023-05-04T07:07:03.727Z,40.25
2023-05-04T07:09:30.667Z,40.11
2023-05-04T07:11:57.626Z,39.48
2023-05-04T07:14:24.627Z,39.27
2023-05-04T07:16:51.758Z,38.61
2023-05-04T07:19:18.801Z,38.53
2023-05-04T07:21:45.760Z,38.61
2023-05-04T07:24:12.708Z,38.32
2023-05-04T07:26:39.659Z,38.67
2023-05-04T07:29:06.613Z,38.81
2023-05-04T07:31:35.051Z,38.69
2023-05-04T07:34:02.285Z,39.16
2023-05-04T07:36:29.331Z,39.00
2023-05-04T07:38:56.594Z,38.60
2023-05-04T07:41:23.585Z,39.16
2023-05-04T07:43:50.653Z,39.62
2023-05-04T07:46:17.673Z,40.32
2023-05-04T07:48:44.687Z,40.65
2023-05-04T07:51:15.221Z,40.89
2023-05-04T07:53:43.366Z,40.93
2023-05-04T07:56:12.505Z,40.90
2023-05-04T07:58:39.561Z,40.83
2023-05-04T08:01:06.544Z,40.91
2023-05-04T08:03:33.560Z,41.12
2023-05-04T08:06:00.794Z,41.28
2023-05-04T08:08:27.888Z,41.47
2023-05-04T08:10:56.254Z,41.46
2023-05-04T08:13:29.323Z,41.63
2023-05-04T08:16:01.368Z,41.98
2023-05-04T08:18:28.409Z,42.27
2023-05-04T08:20:55.358Z,42.50
2023-05-04T08:23:22.386Z,42.43
2023-05-04T08:25:49.366Z,42.43
2023-05-04T08:28:16.340Z,42.31
2023-05-04T08:30:43.736Z,42.42
2023-05-04T08:33:10.831Z,42.83
2023-05-04T08:35:38.095Z,43.03
2023-05-04T08:38:05.109Z,43.28
2023-05-04T08:40:33.226Z,43.93
2023-05-04T08:43:00.193Z,43.84
2023-05-04T08:45:27.310Z,43.63
2023-05-04T08:47:54.346Z,43.56
2023-05-04T08:50:21.408Z,43.62
2023-05-04T08:52:49.069Z,43.59
2023-05-04T08:55:17.279Z,43.77
2023-05-04T08:57:44.462Z,44.36
2023-05-04T09:00:12.392Z,44.41
2023-05-04T09:02:39.443Z,44.19
2023-05-04T09:05:08.385Z,43.97
2023-05-04T09:07:35.391Z,43.60
2023-05-04T09:10:03.791Z,43.77
2023-05-04T09:12:31.698Z,43.85
2023-05-04T09:15:02.483Z,44.06
2023-05-04T09:17:29.861Z,44.40
2023-05-04T09:20:03.480Z,44.55
2023-05-04T09:22:30.720Z,44.69
2023-05-04T09:25:08.370Z,44.60
2023-05-04T09:27:35.430Z,44.96
2023-05-04T09:30:02.456Z,45.21
2023-05-04T09:32:30.159Z,45.31
2023-05-04T09:34:57.147Z,45.46
2023-05-04T09:37:24.176Z,45.78
2023-05-04T09:39:53.854Z,46.04
2023-05-04T09:42:21.644Z,46.20
2023-05-04T09:45:08.567Z,46.34
2023-05-04T09:47:40.506Z,46.19
2023-05-04T09:50:20.779Z,46.10
2023-05-04T09:52:48.485Z,46.18
2023-05-04T09:55:16.782Z,46.30
2023-05-04T09:57:45.390Z,46.48
2023-05-04T10:00:13.894Z,46.59
2023-05-04T10:02:41.049Z,46.71
2023-05-04T10:05:09.542Z,46.62
2023-05-04T10:07:37.007Z,46.54
2023-05-04T10:10:04.734Z,46.19
2023-05-04T10:12:31.774Z,45.74
2023-05-04T10:14:58.762Z,45.90
2023-05-04T10:17:28.919Z,46.09
2023-05-04T10:20:27.843Z,45.98
2023-05-04T10:23:16.775Z,45.60
2023-05-04T10:25:58.925Z,45.74
2023-05-04T10:28:45.670Z,45.62
2023-05-04T10:31:12.781Z,45.43
2023-05-04T10:33:42.776Z,45.50
2023-05-04T10:36:10.462Z,45.51
2023-05-04T10:38:39.094Z,45.42
2023-05-04T10:41:16.333Z,45.76
2023-05-04T10:43:48.675Z,45.31
2023-05-04T10:46:19.684Z,45.24
2023-05-04T10:48:46.673Z,44.91
2023-05-04T10:51:20.253Z,44.92
2023-05-04T10:53:48.178Z,45.20
2023-05-04T10:56:24.739Z,44.58
2023-05-04T10:58:51.833Z,44.61
2023-05-04T11:01:19.341Z,44.57
2023-05-04T11:03:46.466Z,44.37
2023-05-04T11:06:23.970Z,44.37
2023-05-04T11:08:59.319Z,44.10
2023-05-04T11:11:26.656Z,43.78
2023-05-04T11:13:53.658Z,43.92
2023-05-04T11:16:27.651Z,43.78
2023-05-04T11:18:54.985Z,43.93
2023-05-04T11:21:27.976Z,43.44
2023-05-04T11:23:58.428Z,42.82
2023-05-04T11:26:25.782Z,42.90
2023-05-04T11:28:52.856Z,42.93
2023-05-04T11:31:21.206Z,42.55
2023-05-04T11:33:51.948Z,41.98
2023-05-04T11:36:19.319Z,41.37
2023-05-04T11:38:47.092Z,41.39
2023-05-04T11:41:14.227Z,40.72
2023-05-04T11:43:42.446Z,39.86
2023-05-04T11:46:09.469Z,39.38
2023-05-04T11:48:36.618Z,38.90
2023-05-04T11:51:04.049Z,39.45
2023-05-04T11:53:40.823Z,39.95
2023-05-04T11:56:09.243Z,40.45
2023-05-04T11:58:36.584Z,40.45
2023-05-04T12:01:04.369Z,40.60
2023-05-04T12:03:51.096Z,40.76
2023-05-04T12:06:30.445Z,40.13
2023-05-04T12:09:02.248Z,39.84
2023-05-04T12:11:29.245Z,39.61
2023-05-04T12:14:07.194Z,39.45
2023-05-04T12:16:34.321Z,39.24
2023-05-04T12:19:03.123Z,40.49
2023-05-04T12:21:30.567Z,41.01
2023-05-04T12:24:00.540Z,40.84
2023-05-04T12:26:27.871Z,41.51
2023-05-04T12:28:54.862Z,42.12
2023-05-04T12:31:23.709Z,42.80
2023-05-04T12:33:52.151Z,43.28
2023-05-04T12:36:19.128Z,43.88
2023-05-04T12:38:46.370Z,44.26
2023-05-04T12:41:13.378Z,44.44
2023-05-04T12:43:40.522Z,44.21
2023-05-04T12:46:07.801Z,44.20
2023-05-04T12:48:35.003Z,44.62
2023-05-04T12:51:04.302Z,44.84
2023-05-04T12:53:32.322Z,44.81
2023-05-04T12:55:59.654Z,45.28
2023-05-04T12:58:26.781Z,45.27
2023-05-04T13:00:53.915Z,45.54
2023-05-04T13:03:21.033Z,45.72
2023-05-04T13:05:49.879Z,45.59
2023-05-04T13:08:17.581Z,45.48
2023-05-04T13:10:46.387Z,45.67
2023-05-04T13:13:15.662Z,45.68
2023-05-04T13:15:43.528Z,45.40
2023-05-04T13:18:10.565Z,45.10
2023-05-04T13:20:38.934Z,45.03
2023-05-04T13:23:05.997Z,44.96
2023-05-04T13:25:33.227Z,45.35
2023-05-04T13:28:00.233Z,45.44
2023-05-04T13:30:27.301Z,45.05
2023-05-04T13:32:54.310Z,45.31
2023-05-04T13:35:21.312Z,45.65
2023-05-04T13:37:48.275Z,45.72
2023-05-04T13:40:15.261Z,45.88
2023-05-04T13:42:42.320Z,46.21
2023-05-04T13:45:09.845Z,46.16
2023-05-04T13:47:37.286Z,45.81
2023-05-04T13:50:04.724Z,45.63
2023-05-04T13:52:32.268Z,45.92
2023-05-04T13:54:59.808Z,45.67
2023-05-04T13:57:29.868Z,45.68
2023-05-04T14:00:05.785Z,45.71
2023-05-04T14:02:40.998Z,45.68
2023-05-04T14:05:08.692Z,45.85
2023-05-04T14:07:36.026Z,45.85
2023-05-04T14:10:03.041Z,45.05
2023-05-04T14:12:30.027Z,44.85
2023-05-04T14:14:59.104Z,45.35
2023-05-04T14:17:26.165Z,45.02
2023-05-04T14:19:53.202Z,44.56
2023-05-04T14:22:20.194Z,44.05
2023-05-04T14:24:47.189Z,44.18
2023-05-04T14:27:14.177Z,43.71
2023-05-04T14:29:41.266Z,43.48
2023-05-04T14:32:08.391Z,44.38
2023-05-04T14:34:36.271Z,44.71
2023-05-04T14:37:03.277Z,44.64
2023-05-04T14:39:30.253Z,44.40
2023-05-04T14:41:58.203Z,44.34
2023-05-04T14:44:26.259Z,44.25
2023-05-04T14:46:53.310Z,43.78
2023-05-04T14:49:35.985Z,42.93
2023-05-04T14:52:04.831Z,42.67
2023-05-04T14:54:32.001Z,41.64
2023-05-04T14:57:00.085Z,41.75
2023-05-04T14:59:27.268Z,42.01
2023-05-04T15:01:55.406Z,42.49
2023-05-04T15:04:22.817Z,42.39
2023-05-04T15:06:49.897Z,42.24
2023-05-04T15:09:16.883Z,42.37
2023-05-04T15:11:43.943Z,42.37
2023-05-04T15:14:11.301Z,41.99
2023-05-04T15:16:38.481Z,41.80
2023-05-04T15:19:05.535Z,41.66
2023-05-04T15:21:32.542Z,41.05
2023-05-04T15:23:59.718Z,41.07
2023-05-04T15:26:26.730Z,41.20
2023-05-04T15:28:54.272Z,41.50
2023-05-04T15:31:21.514Z,41.89
2023-05-04T15:33:51.362Z,42.41
2023-05-04T15:36:18.389Z,42.53
2023-05-04T15:38:45.358Z,42.18
2023-05-04T15:41:14.359Z,42.04
2023-05-04T15:43:41.502Z,41.99
2023-05-04T15:46:08.563Z,41.63
2023-05-04T15:48:35.523Z,41.65
2023-05-04T15:51:02.505Z,42.04
2023-05-04T15:53:29.496Z,41.95
2023-05-04T15:55:56.493Z,41.93
2023-05-04T15:58:23.488Z,42.32
2023-05-04T16:00:50.871Z,42.50
2023-05-04T16:03:18.003Z,42.37
2023-05-04T16:05:45.118Z,42.20
2023-05-04T16:08:12.103Z,41.97
2023-05-04T16:10:39.063Z,41.89
2023-05-04T16:13:06.240Z,42.07
2023-05-04T16:15:33.308Z,41.95
2023-05-04T16:18:00.426Z,41.63
2023-05-04T16:20:28.516Z,41.54
2023-05-04T16:22:55.567Z,41.52
2023-05-04T16:25:22.609Z,41.61
2023-05-04T16:27:49.615Z,41.58
2023-05-04T16:30:17.360Z,41.66
2023-05-04T16:32:44.913Z,42.44
2023-05-04T16:35:12.107Z,44.05
2023-05-04T16:37:39.382Z,45.76
2023-05-04T16:40:14.348Z,47.51
2023-05-04T16:42:42.301Z,48.57
2023-05-04T16:45:11.483Z,49.08
2023-05-04T16:47:38.434Z,49.27
2023-05-04T16:50:06.946Z,49.24
2023-05-04T16:52:34.020Z,48.74
2023-05-04T16:55:01.244Z,48.42
2023-05-04T16:57:28.287Z,48.07
2023-05-04T16:59:55.503Z,48.17
2023-05-04T17:02:22.482Z,48.62
2023-05-04T17:04:49.461Z,48.44
2023-05-04T17:07:16.642Z,47.96
2023-05-04T17:09:43.620Z,48.35
2023-05-04T17:12:10.562Z,48.95
2023-05-04T17:14:37.510Z,49.81
2023-05-04T17:17:04.450Z,50.55
2023-05-04T17:19:32.044Z,51.32
2023-05-04T17:21:58.980Z,51.75
2023-05-04T17:24:25.935Z,52.16
2023-05-04T17:26:53.136Z,52.51
2023-05-04T17:29:20.118Z,52.91
2023-05-04T17:31:47.242Z,53.17
2023-05-04T17:34:14.211Z,53.36
2023-05-04T17:36:41.156Z,53.56
2023-05-04T17:39:08.118Z,53.72
2023-05-04T17:41:35.296Z,53.76
2023-05-04T17:44:02.463Z,53.84
2023-05-04T17:46:29.481Z,53.93
2023-05-04T17:48:56.735Z,54.14
2023-05-04T17:51:23.706Z,54.27
2023-05-04T17:53:50.836Z,54.48
2023-05-04T17:56:19.747Z,54.67
2023-05-04T17:58:46.695Z,54.88
2023-05-04T18:01:13.743Z,55.06
2023-05-04T18:03:41.506Z,55.23
2023-05-04T18:06:08.587Z,55.23
2023-05-04T18:08:35.552Z,55.21
2023-05-04T18:11:02.505Z,55.24
2023-05-04T18:13:29.495Z,55.31
2023-05-04T18:15:56.493Z,55.35
2023-05-04T18:18:23.441Z,55.38
2023-05-04T18:20:50.480Z,55.32
2023-05-04T18:23:17.430Z,55.30
2023-05-04T18:25:44.377Z,55.37
2023-05-04T18:28:11.350Z,55.27
2023-05-04T18:30:38.369Z,55.36
2023-05-04T18:33:05.429Z,55.23
2023-05-04T18:35:32.398Z,55.10
2023-05-04T18:37:59.347Z,54.90
2023-05-04T18:40:26.319Z,54.85
2023-05-04T18:42:53.270Z,54.46
2023-05-04T18:45:20.241Z,54.44
2023-05-04T18:47:47.215Z,54.26
2023-05-04T18:50:14.792Z,54.10
2023-05-04T18:52:41.924Z,53.70
2023-05-04T18:55:09.237Z,52.65
2023-05-04T18:57:36.269Z,51.43
2023-05-04T19:00:06.726Z,49.86
2023-05-04T19:02:34.101Z,49.08
2023-05-04T19:05:01.074Z,49.01
2023-05-04T19:07:28.022Z,48.47
2023-05-04T19:09:55.564Z,48.29
2023-05-04T19:12:22.562Z,48.44
2023-05-04T19:14:50.606Z,48.12
2023-05-04T19:17:18.690Z,48.28
2023-05-04T19:19:45.679Z,48.30
2023-05-04T19:22:13.460Z,48.10
2023-05-04T19:24:40.685Z,48.10
2023-05-04T19:27:08.091Z,48.15
2023-05-04T19:29:35.087Z,48.29
2023-05-04T19:32:11.966Z,48.52
2023-05-04T19:34:43.372Z,48.63
2023-05-04T19:37:10.315Z,48.78
2023-05-04T19:39:37.415Z,48.76
2023-05-04T19:42:04.425Z,48.80
2023-05-04T19:44:31.355Z,48.82
2023-05-04T19:46:58.356Z,49.01
2023-05-04T19:49:25.572Z,49.21
2023-05-04T19:51:52.825Z,49.53
2023-05-04T19:54:19.948Z,49.93
2023-05-04T19:56:46.949Z,50.11
2023-05-04T19:59:13.902Z,50.37
2023-05-04T20:01:40.981Z,50.44
2023-05-04T20:04:08.588Z,50.49
2023-05-04T20:06:36.137Z,50.36
2023-05-04T20:09:04.007Z,49.79
2023-05-04T20:11:31.063Z,49.10
2023-05-04T20:13:58.014Z,48.53
2023-05-04T20:16:24.989Z,48.27
2023-05-04T20:18:52.347Z,48.40
2023-05-04T20:21:19.671Z,48.37
2023-05-04T20:23:46.612Z,48.30
2023-05-04T20:26:13.570Z,48.60
2023-05-04T20:28:40.641Z,48.87
2023-05-04T20:31:08.531Z,49.08
2023-05-04T20:33:36.181Z,49.36
2023-05-04T20:36:03.834Z,49.44
2023-05-04T20:38:30.822Z,49.54
2023-05-04T20:40:57.788Z,49.65
2023-05-04T20:43:24.746Z,49.88
2023-05-04T20:45:53.588Z,49.92
2023-05-04T20:48:20.535Z,49.97
2023-05-04T20:50:47.960Z,50.14
2023-05-04T20:53:15.612Z,50.35
2023-05-04T20:55:43.640Z,50.40
2023-05-04T20:58:10.608Z,50.69
2023-05-04T21:00:37.565Z,50.86
2023-05-04T21:03:04.583Z,50.96
2023-05-04T21:05:31.584Z,51.42
2023-05-04T21:07:58.555Z,51.58
2023-05-04T21:10:25.507Z,51.77
2023-05-04T21:12:52.562Z,51.95
2023-05-04T21:15:19.603Z,51.91
2023-05-04T21:17:49.966Z,52.12
2023-05-04T21:20:17.365Z,52.16
2023-05-04T21:22:44.313Z,52.36
2023-05-04T21:25:11.524Z,52.50
2023-05-04T21:27:38.519Z,52.57
2023-05-04T21:30:08.573Z,52.57
2023-05-04T21:32:35.875Z,52.68
2023-05-04T21:35:04.203Z,52.90
2023-05-04T21:37:31.449Z,52.90
2023-05-04T21:39:58.410Z,53.05
2023-05-04T21:42:25.513Z,53.16
2023-05-04T21:44:58.482Z,53.50
2023-05-04T21:47:25.992Z,53.79
2023-05-04T21:49:53.708Z,54.24
2023-05-04T21:52:21.028Z,54.45
2023-05-04T21:54:47.996Z,54.65
2023-05-04T21:57:14.984Z,54.60
2023-05-04T21:59:41.933Z,54.57
2023-05-04T22:02:09.899Z,54.75
2023-05-04T22:04:37.158Z,54.97
2023-05-04T22:07:04.132Z,55.25
2023-05-04T22:09:31.106Z,55.33
2023-05-04T22:11:58.831Z,55.52
2023-05-04T22:14:25.832Z,55.58
2023-05-04T22:16:53.356Z,55.50
2023-05-04T22:19:20.369Z,55.32
2023-05-04T22:21:47.309Z,55.09
2023-05-04T22:24:14.245Z,55.05
2023-05-04T22:26:41.461Z,54.85
2023-05-04T22:29:08.451Z,54.74
2023-05-04T22:31:35.625Z,54.56
2023-05-04T22:34:02.564Z,54.65
2023-05-04T22:36:29.516Z,54.95
2023-05-04T22:38:56.466Z,55.16
2023-05-04T22:41:23.883Z,55.48
2023-05-04T22:43:50.876Z,55.70
2023-05-04T22:46:17.883Z,55.87
2023-05-04T22:48:48.042Z,56.07
2023-05-04T22:51:15.195Z,56.31
2023-05-04T22:53:42.200Z,56.57
2023-05-04T22:56:09.154Z,56.79
2023-05-04T22:58:36.107Z,56.97
2023-05-04T23:01:03.128Z,57.14
2023-05-04T23:03:30.198Z,57.00
2023-05-04T23:06:00.006Z,56.92
2023-05-04T23:08:26.983Z,56.82
2023-05-04T23:10:53.949Z,56.55
2023-05-04T23:13:20.974Z,56.53
2023-05-04T23:15:48.289Z,56.56
2023-05-04T23:18:15.464Z,56.81
2023-05-04T23:20:42.445Z,57.07
2023-05-04T23:23:09.470Z,57.23
2023-05-04T23:25:36.579Z,57.39
2023-05-04T23:28:03.849Z,57.48
2023-05-04T23:30:30.968Z,57.67
2023-05-04T23:32:58.678Z,57.84
2023-05-04T23:35:27.143Z,57.76
2023-05-04T23:37:54.646Z,57.62
2023-05-04T23:40:21.834Z,57.47
2023-05-04T23:42:50.627Z,57.31
2023-05-04T23:45:17.718Z,57.16
2023-05-04T23:47:44.708Z,57.01
2023-05-04T23:50:11.905Z,56.98
2023-05-04T23:52:38.937Z,57.16
2023-05-04T23:55:06.770Z,57.41
2023-05-04T23:57:33.791Z,57.46
